Time;durP1;ratioP1;P1;durP2;ratioP2;P2;SDS_P1;SDS_P2;PMS_P1;PMS_P2;Temp;Humidity;BMP_temperature;BMP_pressure;BME280_temperature;BME280_humidity;BME280_pressure;Samples;Min_cycle;Max_cycle;Signal;HPM_P1;HPM_P2
2022/12/06 05:31:14;;;;;;;14.20;7.30;;;5.90;76.30;;;;;;5517520;23;20086;-85
2022/12/06 05:33:40;;;;;;;19.20;7.88;;;5.90;76.20;;;;;;4930988;29;20720;-85
2022/12/06 05:36:14;;;;;;;22.95;6.93;;;5.80;76.30;;;;;;4930063;29;20118;-83
2022/12/06 05:38:40;;;;;;;15.68;5.85;;;5.90;76.40;;;;;;4941097;29;20032;-83
2022/12/06 05:41:06;;;;;;;11.60;6.57;;;5.80;76.20;;;;;;4939579;29;20027;-83
2022/12/06 05:43:32;;;;;;;14.80;6.80;;;5.60;76.40;;;;;;4923275;29;20423;-82
2022/12/06 05:45:58;;;;;;;14.13;7.20;;;5.60;76.90;;;;;;4941051;29;20028;-83
2022/12/06 05:48:24;;;;;;;13.35;6.40;;;5.50;76.70;;;;;;4939660;29;20035;-82
2022/12/06 05:50:49;;;;;;;18.38;7.97;;;5.70;77.20;;;;;;4939720;29;20028;-82
2022/12/06 05:53:16;;;;;;;15.82;6.43;;;5.70;77.00;;;;;;4938991;29;20111;-86
2022/12/06 05:55:43;;;;;;;27.13;14.35;;;5.80;76.40;;;;;;4941418;29;20027;-83
2022/12/06 05:58:09;;;;;;;20.67;14.07;;;5.80;76.70;;;;;;4939392;29;20040;-81
2022/12/06 06:00:38;;;;;;;24.75;10.63;;;5.90;76.60;;;;;;4939205;29;20432;-82
2022/12/06 06:03:04;;;;;;;17.60;9.63;;;5.90;76.50;;;;;;4930258;29;20121;-85
2022/12/06 06:05:30;;;;;;;20.17;10.70;;;6.00;76.30;;;;;;4922932;29;20028;-84
2022/12/06 06:07:56;;;;;;;22.80;10.73;;;6.00;76.20;;;;;;4926580;29;20378;-82
2022/12/06 06:10:22;;;;;;;20.27;8.70;;;6.00;75.80;;;;;;4939008;29;20027;-82
2022/12/06 06:12:48;;;;;;;15.73;7.97;;;5.90;75.70;;;;;;4924522;29;20054;-84
2022/12/06 06:15:14;;;;;;;22.67;9.50;;;5.90;76.00;;;;;;4937936;29;20108;-87
2022/12/06 06:17:43;;;;;;;23.92;9.27;;;5.90;76.10;;;;;;4920110;29;20027;-78
2022/12/06 06:20:12;;;;;;;25.95;8.85;;;6.00;76.20;;;;;;4930225;29;20508;-83
2022/12/06 06:22:39;;;;;;;12.10;7.40;;;6.00;75.90;;;;;;4911005;29;20448;-83
2022/12/06 06:25:06;;;;;;;17.73;8.40;;;5.90;75.90;;;;;;4923303;29;20024;-88
2022/12/06 06:27:36;;;;;;;22.70;9.63;;;5.70;75.70;;;;;;4933515;29;20031;-88
2022/12/06 06:30:08;;;;;;;20.67;7.53;;;5.60;76.10;;;;;;4927901;29;20546;-87
2022/12/06 06:32:34;;;;;;;16.80;7.90;;;5.40;76.30;;;;;;4920211;29;20783;-85
2022/12/06 06:35:00;;;;;;;21.35;8.73;;;5.50;76.60;;;;;;4921161;29;20044;-86
2022/12/06 06:37:26;;;;;;;11.30;7.28;;;5.50;76.60;;;;;;4917842;29;20484;-84
2022/12/06 06:39:52;;;;;;;15.77;6.93;;;5.50;76.30;;;;;;4915889;29;20071;-82
2022/12/06 06:42:18;;;;;;;9.38;6.15;;;5.40;76.60;;;;;;4903834;29;20108;-84
2022/12/06 06:44:44;;;;;;;14.57;6.65;;;5.50;76.50;;;;;;4904514;29;20037;-88
2022/12/06 06:47:09;;;;;;;16.92;7.40;;;5.60;76.10;;;;;;4924325;29;20035;-88
2022/12/06 06:49:35;;;;;;;17.40;8.07;;;5.60;76.10;;;;;;4919579;29;20098;-88
2022/12/06 06:52:04;;;;;;;11.63;5.28;;;5.60;76.10;;;;;;4921726;29;20036;-86
2022/12/06 06:54:29;;;;;;;12.07;5.55;;;5.50;75.00;;;;;;4916767;29;20064;-86
2022/12/06 06:56:55;;;;;;;16.02;7.68;;;5.50;75.50;;;;;;4908862;29;20040;-87
2022/12/06 06:59:23;;;;;;;17.35;7.30;;;5.40;76.20;;;;;;4923945;29;20039;-88
2022/12/06 07:01:49;;;;;;;15.07;6.28;;;5.30;75.80;;;;;;4919203;29;20035;-86
2022/12/06 07:04:15;;;;;;;15.80;6.75;;;5.40;76.10;;;;;;4922551;29;20028;-87
2022/12/06 07:06:40;;;;;;;21.15;8.57;;;5.50;76.00;;;;;;4915673;29;20115;-86
2022/12/06 07:09:06;;;;;;;14.95;8.00;;;5.50;76.10;;;;;;4902498;29;20033;-86
2022/12/06 07:11:32;;;;;;;18.02;8.02;;;5.60;75.80;;;;;;4914482;29;20032;-86
2022/12/06 07:13:57;;;;;;;20.13;8.55;;;5.70;75.80;;;;;;4920370;29;20024;-88
2022/12/06 07:16:23;;;;;;;17.50;8.90;;;5.70;75.70;;;;;;4906727;29;20080;-86
2022/12/06 07:18:49;;;;;;;15.13;8.52;;;5.70;75.60;;;;;;4901283;29;20068;-86
2022/12/06 07:21:15;;;;;;;13.40;7.85;;;5.80;75.50;;;;;;4923135;29;20036;-87
2022/12/06 07:23:41;;;;;;;15.45;7.82;;;5.70;75.40;;;;;;4919559;29;20884;-87
2022/12/06 07:26:13;;;;;;;18.02;11.10;;;5.80;75.50;;;;;;4920152;29;20524;-88
2022/12/06 07:28:40;;;;;;;18.67;8.30;;;5.80;75.20;;;;;;4919530;29;20028;-87
2022/12/06 07:34:13;;;;;;;16.00;8.55;;;5.80;75.20;;;;;;4914049;29;20783;-87
2022/12/06 07:36:38;;;;;;;15.23;7.72;;;5.80;75.10;;;;;;4919077;29;20067;-87
2022/12/06 07:39:04;;;;;;;19.70;8.50;;;5.80;75.20;;;;;;4918322;29;20032;-87
2022/12/06 07:47:00;;;;;;;16.10;7.10;;;5.70;75.50;;;;;;4913999;29;20064;-87
2022/12/06 07:49:25;;;;;;;15.43;8.43;;;5.80;75.40;;;;;;4922012;29;20052;-87
2022/12/06 07:51:53;;;;;;;16.98;8.73;;;5.80;75.10;;;;;;4914727;29;20040;-87
2022/12/06 07:54:40;;;;;;;;;;;;;;;;;;;;;
2022/12/06 07:57:06;;;;;;;15.50;8.15;;;5.70;74.90;;;;;;4914383;29;20032;-86
2022/12/06 07:59:32;;;;;;;15.68;8.55;;;5.70;75.10;;;;;;4919679;29;20062;-87
2022/12/06 08:01:58;;;;;;;16.35;9.15;;;5.80;75.20;;;;;;4921126;29;20578;-85
2022/12/06 08:04:23;;;;;;;12.38;8.70;;;5.80;75.00;;;;;;4918955;29;20060;-86
2022/12/06 08:06:49;;;;;;;18.63;9.32;;;5.80;74.90;;;;;;4921240;29;20036;-86
2022/12/06 08:09:15;;;;;;;16.02;9.75;;;5.80;74.90;;;;;;4913901;29;20034;-86
2022/12/06 08:11:41;;;;;;;20.60;8.43;;;5.80;74.90;;;;;;4912744;29;20028;-87
2022/12/06 08:14:06;;;;;;;20.48;8.23;;;5.90;74.90;;;;;;4916545;29;20030;-86
2022/12/06 08:16:32;;;;;;;17.83;10.25;;;5.90;75.00;;;;;;4913704;29;20036;-87
2022/12/06 08:18:58;;;;;;;17.35;10.70;;;6.00;74.80;;;;;;4920520;29;20396;-86
2022/12/06 08:21:25;;;;;;;18.10;9.60;;;6.00;74.80;;;;;;4923163;29;20048;-87
2022/12/06 08:23:52;;;;;;;14.55;7.60;;;6.00;74.90;;;;;;4913959;29;20029;-87
2022/12/06 08:26:18;;;;;;;18.23;8.93;;;5.90;74.70;;;;;;4918025;29;20452;-86
2022/12/06 08:28:44;;;;;;;16.40;7.38;;;6.00;74.80;;;;;;4918879;29;20031;-87
2022/12/06 08:31:16;;;;;;;20.10;8.85;;;5.90;74.20;;;;;;4918215;29;20135;-86
2022/12/06 08:33:42;;;;;;;19.00;8.82;;;5.80;74.30;;;;;;4918129;29;20409;-86
2022/12/06 08:36:13;;;;;;;15.07;7.30;;;5.80;75.00;;;;;;4919326;29;20028;-86
2022/12/06 08:38:39;;;;;;;19.23;7.53;;;6.00;75.00;;;;;;4918811;29;20099;-86
2022/12/06 08:41:54;;;;;;;19.92;9.90;;;6.00;74.90;;;;;;4920787;29;20028;-86
2022/12/06 08:43:52;;;;;;;15.35;8.32;;;6.10;74.70;;;;;;4922708;29;20079;-90
2022/12/06 08:46:18;;;;;;;19.08;9.88;;;6.10;74.40;;;;;;4921448;29;20028;-86
2022/12/06 08:48:43;;;;;;;20.20;11.80;;;6.20;74.40;;;;;;4922532;29;20028;-85
2022/12/06 08:51:09;;;;;;;23.65;9.70;;;6.20;74.30;;;;;;4923219;29;20484;-87
2022/12/06 08:53:35;;;;;;;18.08;9.73;;;6.20;74.10;;;;;;4919930;29;20469;-86
2022/12/06 08:56:00;;;;;;;16.45;9.23;;;6.30;74.00;;;;;;4907704;29;20032;-85
2022/12/06 08:58:26;;;;;;;16.05;9.00;;;6.30;73.90;;;;;;4923828;29;20036;-86
2022/12/06 09:00:51;;;;;;;15.30;8.65;;;6.30;73.90;;;;;;4921564;29;20024;-87
2022/12/06 09:03:17;;;;;;;15.82;9.88;;;6.30;73.80;;;;;;4921881;29;20039;-86
2022/12/06 09:05:43;;;;;;;22.95;9.57;;;6.40;73.90;;;;;;4923889;29;20038;-86
2022/12/06 09:08:08;;;;;;;18.80;8.15;;;6.30;73.90;;;;;;4923400;29;20032;-87
2022/12/06 09:10:34;;;;;;;17.02;7.85;;;6.40;73.80;;;;;;4922048;29;20028;-89
2022/12/06 09:13:00;;;;;;;14.88;7.93;;;6.40;73.90;;;;;;4922664;29;20060;-86
2022/12/06 09:15:25;;;;;;;13.77;8.45;;;6.40;73.30;;;;;;4908918;29;20124;-87
2022/12/06 09:17:51;;;;;;;13.30;7.50;;;6.50;73.50;;;;;;4902277;29;20029;-87
2022/12/06 09:20:17;;;;;;;15.70;8.30;;;6.60;73.40;;;;;;4918053;29;20028;-88
2022/12/06 09:22:43;;;;;;;17.38;8.35;;;6.60;73.40;;;;;;4920542;29;20138;-87
2022/12/06 09:25:10;;;;;;;17.25;7.68;;;6.50;72.70;;;;;;4920714;29;20115;-87
2022/12/06 09:27:36;;;;;;;18.10;8.70;;;6.50;73.20;;;;;;4920941;29;20496;-88
2022/12/06 09:30:03;;;;;;;17.65;8.02;;;6.40;73.30;;;;;;4921033;29;20370;-88
2022/12/06 09:32:28;;;;;;;18.02;8.57;;;6.40;73.10;;;;;;4917548;29;20091;-88
2022/12/06 09:34:54;;;;;;;14.18;8.00;;;6.20;73.20;;;;;;4903086;29;20099;-86
2022/12/06 09:37:20;;;;;;;11.75;6.07;;;6.20;73.70;;;;;;4903267;29;20032;-89
2022/12/06 09:39:54;;;;;;;16.55;7.82;;;6.30;73.20;;;;;;4918527;29;20033;-87
2022/12/06 09:42:22;;;;;;;14.60;7.75;;;6.40;73.70;;;;;;4925133;29;20448;-87
2022/12/06 09:44:51;;;;;;;15.27;8.98;;;6.50;73.70;;;;;;4922911;29;20064;-87
2022/12/06 09:47:46;;;;;;;18.13;8.77;;;6.70;73.10;;;;;;4922245;29;20052;-87
2022/12/06 09:50:49;;;;;;;20.55;9.35;;;6.70;73.10;;;;;;4921115;29;20083;-87
2022/12/06 09:53:27;;;;;;;19.27;8.93;;;6.80;72.80;;;;;;4917875;29;20055;-87
2022/12/06 09:56:13;;;;;;;16.63;8.57;;;6.70;72.80;;;;;;4902778;29;20032;-87
2022/12/06 09:58:42;;;;;;;18.17;8.93;;;6.60;72.90;;;;;;4903427;29;20504;-87
2022/12/06 10:01:49;;;;;;;16.45;8.50;;;6.60;73.10;;;;;;4913698;29;20076;-87
2022/12/06 10:04:39;;;;;;;13.75;8.23;;;6.50;73.00;;;;;;4910376;29;20040;-87
2022/12/06 10:07:23;;;;;;;15.82;8.07;;;6.50;73.20;;;;;;4936322;29;20122;-87
2022/12/06 10:10:10;;;;;;;16.23;8.80;;;6.50;73.30;;;;;;4911616;29;20028;-86
2022/12/06 10:13:05;;;;;;;20.70;10.95;;;6.50;73.10;;;;;;4910855;29;20384;-87
2022/12/06 10:15:49;;;;;;;16.67;8.65;;;6.60;73.10;;;;;;4919223;29;20586;-86
2022/12/06 10:18:44;;;;;;;18.02;10.18;;;6.60;73.10;;;;;;4919645;29;20115;-88
2022/12/06 10:21:33;;;;;;;24.60;10.80;;;6.70;72.80;;;;;;4920051;29;20032;-88
2022/12/06 10:24:28;;;;;;;14.77;8.90;;;6.70;72.80;;;;;;4909390;29;20036;-88
2022/12/06 10:26:59;;;;;;;18.90;9.80;;;6.70;72.20;;;;;;4899802;29;20040;-87
2022/12/06 10:29:37;;;;;;;16.15;8.15;;;6.50;73.00;;;;;;4903856;29;20024;-87
2022/12/06 10:32:17;;;;;;;20.75;9.30;;;6.60;72.00;;;;;;4904512;29;20076;-86
2022/12/06 10:34:49;;;;;;;15.68;8.48;;;6.60;72.50;;;;;;4901077;29;20036;-87
2022/12/06 10:37:39;;;;;;;14.75;8.48;;;6.70;72.30;;;;;;4916785;29;20087;-87
2022/12/06 10:40:20;;;;;;;18.80;10.02;;;6.70;72.30;;;;;;4917562;29;20035;-86
2022/12/06 10:42:52;;;;;;;22.63;10.20;;;6.80;72.30;;;;;;4918830;29;20103;-86
2022/12/06 10:49:13;;;;;;;14.85;8.63;;;6.90;71.90;;;;;;4870114;29;20037;-87
2022/12/06 10:51:45;;;;;;;16.77;9.10;;;6.90;71.20;;;;;;4890419;29;20037;-88
2022/12/06 10:54:28;;;;;;;22.60;11.52;;;6.90;71.40;;;;;;4901831;29;20029;-88
2022/12/06 10:56:58;;;;;;;21.10;9.88;;;6.90;71.40;;;;;;4900585;29;20071;-86
2022/12/06 10:59:33;;;;;;;20.98;8.77;;;6.80;70.60;;;;;;4901991;29;20084;-89
2022/12/06 11:02:12;;;;;;;15.95;9.68;;;6.80;71.40;;;;;;4916032;29;20040;-87
2022/12/06 11:04:39;;;;;;;13.45;8.73;;;7.00;71.30;;;;;;4916165;29;20029;-87
2022/12/06 11:07:14;;;;;;;18.60;9.50;;;7.00;70.90;;;;;;4917968;29;20024;-89
2022/12/06 11:09:44;;;;;;;16.90;8.48;;;7.10;70.80;;;;;;4919515;29;20047;-88
2022/12/06 11:12:20;;;;;;;19.90;9.77;;;7.20;70.70;;;;;;4919272;29;20039;-88
2022/12/06 11:14:52;;;;;;;17.40;8.82;;;7.20;70.80;;;;;;4920117;29;20128;-88
2022/12/06 11:17:23;;;;;;;18.50;8.90;;;7.20;70.20;;;;;;4920166;29;20412;-88
2022/12/06 11:19:54;;;;;;;19.38;8.82;;;7.20;70.50;;;;;;4921658;29;20632;-88
2022/12/06 11:22:53;;;;;;;17.70;8.55;;;7.20;70.30;;;;;;4919483;29;20064;-89
2022/12/06 11:25:30;;;;;;;18.65;8.70;;;7.20;70.50;;;;;;4901720;29;20504;-87
2022/12/06 11:28:10;;;;;;;19.95;9.57;;;7.20;70.40;;;;;;4901251;29;20029;-87
2022/12/06 11:30:36;;;;;;;19.67;10.40;;;7.30;70.20;;;;;;4901090;29;20051;-88
2022/12/06 11:33:03;;;;;;;18.48;9.38;;;7.40;69.80;;;;;;4901277;29;20044;-87
2022/12/06 11:35:30;;;;;;;21.52;11.60;;;7.40;69.90;;;;;;4901019;29;20043;-88
2022/12/06 11:37:59;;;;;;;16.23;9.65;;;7.50;69.70;;;;;;4915764;29;20464;-88
2022/12/06 11:40:35;;;;;;;19.08;9.68;;;7.40;69.60;;;;;;4901123;29;20056;-87
2022/12/06 11:43:05;;;;;;;16.23;9.43;;;7.50;69.60;;;;;;4918624;29;20040;-86
2022/12/06 11:45:33;;;;;;;19.88;9.85;;;7.50;69.80;;;;;;4918363;29;20119;-87
2022/12/06 11:48:01;;;;;;;20.88;9.63;;;7.40;69.30;;;;;;4920044;29;20040;-88
2022/12/06 11:50:32;;;;;;;16.20;10.30;;;7.50;69.80;;;;;;4919653;29;20040;-87
2022/12/06 11:53:10;;;;;;;16.83;9.23;;;7.60;69.40;;;;;;4915056;29;20064;-88
2022/12/06 11:55:42;;;;;;;13.90;8.05;;;7.60;69.20;;;;;;4901030;29;20039;-87
2022/12/06 11:58:14;;;;;;;18.77;10.13;;;7.70;69.00;;;;;;4899934;29;20091;-88
2022/12/06 12:00:58;;;;;;;17.95;10.15;;;7.70;68.90;;;;;;4918576;29;20052;-88
2022/12/06 12:03:34;;;;;;;18.67;9.60;;;7.70;69.10;;;;;;4933527;29;20028;-88
2022/12/06 12:06:20;;;;;;;18.85;9.25;;;7.70;69.10;;;;;;4916580;29;20033;-86
2022/12/06 12:09:05;;;;;;;13.55;7.30;;;7.70;69.10;;;;;;4919835;29;20463;-88
2022/12/06 12:11:38;;;;;;;15.27;8.48;;;7.70;69.10;;;;;;4918230;29;20476;-88
2022/12/06 12:14:17;;;;;;;14.93;8.60;;;7.80;68.90;;;;;;4936527;29;20028;-91
2022/12/06 12:16:47;;;;;;;17.60;9.10;;;7.80;69.00;;;;;;4945074;29;20083;-87
2022/12/06 12:19:36;;;;;;;15.73;8.55;;;7.80;69.00;;;;;;4929940;29;20032;-87
2022/12/06 12:22:19;;;;;;;14.23;7.43;;;7.90;68.90;;;;;;4918485;29;20028;-87
2022/12/06 12:24:55;;;;;;;16.67;9.20;;;7.90;68.90;;;;;;4925579;29;20059;-88
2022/12/06 12:27:42;;;;;;;12.75;7.25;;;7.90;68.80;;;;;;4924439;29;20032;-88
2022/12/06 12:30:14;;;;;;;11.80;7.70;;;7.90;68.60;;;;;;4924609;29;20020;-87
2022/12/06 12:32:41;;;;;;;16.13;8.10;;;8.00;68.90;;;;;;4923994;29;20059;-87
2022/12/06 12:35:27;;;;;;;19.48;7.45;;;8.00;68.90;;;;;;4924254;29;20464;-87
2022/12/06 12:38:01;;;;;;;17.52;9.07;;;8.10;68.70;;;;;;4924475;29;20072;-87
2022/12/06 12:40:32;;;;;;;17.63;8.85;;;8.10;68.60;;;;;;4925569;29;20511;-88
2022/12/06 12:43:12;;;;;;;15.73;8.35;;;8.10;68.40;;;;;;4936459;29;20039;-87
2022/12/06 12:45:39;;;;;;;18.25;9.15;;;8.10;68.60;;;;;;4927631;29;20032;-87
2022/12/06 12:48:26;;;;;;;19.33;10.15;;;8.10;68.60;;;;;;4927514;29;20031;-85
2022/12/06 12:50:55;;;;;;;18.10;8.80;;;8.00;68.50;;;;;;4944516;29;20098;-87
2022/12/06 12:53:30;;;;;;;19.50;9.30;;;8.00;68.50;;;;;;4928759;29;20028;-85
2022/12/06 12:56:16;;;;;;;24.40;9.93;;;8.10;68.30;;;;;;4928965;29;20813;-87
2022/12/06 12:58:45;;;;;;;22.73;10.50;;;8.10;68.70;;;;;;4927515;29;20028;-88
2022/12/06 13:01:22;;;;;;;15.23;8.40;;;8.20;68.80;;;;;;4925581;29;20028;-87
2022/12/06 13:04:02;;;;;;;13.35;7.47;;;8.10;68.60;;;;;;4925599;29;20047;-88
2022/12/06 13:06:46;;;;;;;17.30;8.90;;;8.10;68.60;;;;;;4944065;29;20440;-86
2022/12/06 13:09:37;;;;;;;14.38;8.10;;;8.20;68.50;;;;;;4928870;29;20126;-89
2022/12/06 13:12:25;;;;;;;24.88;11.43;;;8.20;68.50;;;;;;4944030;29;20087;-90
2022/12/06 13:14:56;;;;;;;17.50;10.15;;;8.20;68.30;;;;;;4944338;29;20527;-88
2022/12/06 13:17:25;;;;;;;17.73;8.52;;;8.20;68.30;;;;;;4923808;29;20571;-88
2022/12/06 13:19:52;;;;;;;14.32;7.60;;;8.20;68.20;;;;;;4924081;29;20032;-87
2022/12/06 13:22:26;;;;;;;18.48;8.82;;;8.20;68.10;;;;;;4925803;29;20028;-88
2022/12/06 13:25:01;;;;;;;14.93;9.65;;;8.30;68.30;;;;;;4943029;29;20031;-88
2022/12/06 13:27:42;;;;;;;18.10;9.90;;;8.30;68.20;;;;;;4941615;29;20464;-88
2022/12/06 13:30:20;;;;;;;14.30;8.18;;;8.30;68.20;;;;;;4924155;29;20091;-87
2022/12/06 13:32:49;;;;;;;21.92;11.15;;;8.30;68.40;;;;;;4920323;29;20408;-90
2022/12/06 13:35:24;;;;;;;18.80;9.85;;;8.30;68.00;;;;;;4905347;29;20028;-89
2022/12/06 13:38:01;;;;;;;15.25;7.70;;;8.30;68.10;;;;;;4922322;29;20408;-88
2022/12/06 13:40:43;;;;;;;17.27;8.73;;;8.30;67.80;;;;;;4906169;29;20481;-89
2022/12/06 13:43:24;;;;;;;18.73;8.80;;;8.30;67.90;;;;;;4936116;29;20024;-88
2022/12/06 13:45:52;;;;;;;17.33;8.68;;;8.30;68.00;;;;;;4935080;29;20040;-90
2022/12/06 13:48:23;;;;;;;16.67;8.85;;;8.40;68.00;;;;;;4905035;29;20028;-88
2022/12/06 13:50:56;;;;;;;14.55;8.20;;;8.40;67.80;;;;;;4922487;29;20479;-89
2022/12/06 13:53:27;;;;;;;17.02;7.75;;;8.40;67.90;;;;;;4906719;29;20031;-88
2022/12/06 13:56:13;;;;;;;17.27;9.70;;;8.30;67.60;;;;;;4923150;29;20065;-89
2022/12/06 13:58:41;;;;;;;18.95;11.30;;;8.40;67.60;;;;;;4937922;29;20027;-89
2022/12/06 14:01:40;;;;;;;14.45;8.55;;;8.30;67.70;;;;;;4923684;29;20035;-82
2022/12/06 14:04:27;;;;;;;27.58;15.10;;;8.40;67.90;;;;;;4937715;29;20547;-82
2022/12/06 14:07:01;;;;;;;12.88;7.68;;;8.40;68.00;;;;;;4925584;29;20023;-82
2022/12/06 14:09:40;;;;;;;15.70;10.65;;;8.50;68.00;;;;;;4921302;29;20056;-81
2022/12/06 14:12:27;;;;;;;15.00;8.65;;;8.40;67.70;;;;;;4920840;29;20047;-81
2022/12/06 14:14:56;;;;;;;13.10;6.68;;;8.40;67.80;;;;;;4913382;29;20058;-82
2022/12/06 14:17:24;;;;;;;13.53;7.90;;;8.40;67.80;;;;;;4914783;29;20044;-82
2022/12/06 14:19:51;;;;;;;20.77;8.80;;;8.40;67.80;;;;;;4923179;29;20040;-81
2022/12/06 14:22:26;;;;;;;15.95;8.88;;;8.40;67.40;;;;;;4921278;29;20115;-81
2022/12/06 14:25:00;;;;;;;12.98;8.50;;;8.40;67.30;;;;;;4924883;29;20036;-82
2022/12/06 14:27:29;;;;;;;14.38;7.20;;;8.30;67.30;;;;;;4937366;29;20035;-82
2022/12/06 14:30:17;;;;;;;13.00;7.07;;;8.30;67.70;;;;;;4940314;29;20019;-83
2022/12/06 14:32:55;;;;;;;15.27;8.82;;;8.30;67.70;;;;;;4932498;29;20139;-82
2022/12/06 14:35:26;;;;;;;12.30;6.45;;;8.40;67.90;;;;;;4954978;29;20023;-83
2022/12/06 14:38:00;;;;;;;12.23;6.00;;;8.30;67.50;;;;;;4937132;29;20518;-81
2022/12/06 14:43:26;;;;;;;16.17;6.80;;;8.30;67.50;;;;;;4936022;29;20086;-82
2022/12/06 14:45:52;;;;;;;11.55;6.03;;;8.30;67.50;;;;;;4939444;29;20389;-82
2022/12/06 14:48:20;;;;;;;19.02;9.90;;;8.30;67.60;;;;;;4937396;29;20028;-83
2022/12/06 14:50:58;;;;;;;15.15;8.15;;;8.30;67.50;;;;;;4939443;29;20028;-84
2022/12/06 14:53:28;;;;;;;13.88;7.70;;;8.30;67.70;;;;;;4939172;29;20437;-84
2022/12/06 14:55:58;;;;;;;9.60;6.13;;;8.30;67.80;;;;;;4939687;29;20035;-83
2022/12/06 14:58:41;;;;;;;20.08;10.57;;;8.30;67.80;;;;;;4939012;29;20031;-82
2022/12/06 15:01:16;;;;;;;28.25;14.60;;;8.30;67.80;;;;;;4920658;29;20096;-81
2022/12/06 15:03:42;;;;;;;18.42;11.27;;;8.30;67.80;;;;;;4920514;29;20055;-82
2022/12/06 15:06:10;;;;;;;20.42;11.15;;;8.30;67.60;;;;;;4914671;29;20496;-84
2022/12/06 15:08:43;;;;;;;18.38;12.02;;;8.30;67.90;;;;;;4918898;29;20629;-82
2022/12/06 15:11:11;;;;;;;18.08;9.98;;;8.20;67.70;;;;;;4934598;29;20016;-82
2022/12/06 15:13:38;;;;;;;19.05;9.63;;;8.20;67.90;;;;;;4915939;29;20027;-81
2022/12/06 15:16:06;;;;;;;26.45;11.40;;;8.20;68.20;;;;;;4930410;29;20034;-82
2022/12/06 15:18:34;;;;;;;17.38;8.80;;;8.20;68.10;;;;;;4930266;29;20036;-82
2022/12/06 15:21:00;;;;;;;19.90;9.75;;;8.10;68.10;;;;;;4914133;29;20085;-82
2022/12/06 15:23:27;;;;;;;25.92;12.57;;;8.10;68.30;;;;;;4918015;29;20042;-81
2022/12/06 15:25:53;;;;;;;20.40;10.23;;;8.10;68.70;;;;;;4920283;29;20463;-82
2022/12/06 15:28:20;;;;;;;17.75;9.20;;;8.10;68.70;;;;;;4913747;29;20024;-82
2022/12/06 15:30:46;;;;;;;13.73;8.25;;;8.10;68.80;;;;;;4909726;29;20071;-82
2022/12/06 15:33:19;;;;;;;13.30;7.85;;;8.00;69.00;;;;;;4918598;29;20028;-82
2022/12/06 15:35:45;;;;;;;12.40;7.30;;;8.00;69.00;;;;;;4919182;29;20032;-82
2022/12/06 15:38:11;;;;;;;12.93;7.25;;;8.00;69.00;;;;;;4919027;29;20395;-82
2022/12/06 15:40:41;;;;;;;12.45;8.02;;;8.00;69.10;;;;;;4901056;29;20064;-81
2022/12/06 15:43:31;;;;;;;19.10;8.40;;;7.90;69.20;;;;;;4913762;29;20024;-81
2022/12/06 15:46:01;;;;;;;11.20;7.07;;;7.80;69.40;;;;;;4918126;29;20060;-82
2022/12/06 15:48:27;;;;;;;;;;;7.80;69.70;;;;;;4919031;29;20119;-81
2022/12/06 15:50:55;;;;;;;16.55;7.38;;;7.80;69.90;;;;;;4918457;29;19915;-82
2022/12/06 15:53:23;;;;;;;12.52;7.82;;;7.80;69.90;;;;;;4918467;29;20051;-82
2022/12/06 15:55:49;;;;;;;14.68;7.45;;;7.70;70.10;;;;;;4917252;29;20087;-82
2022/12/06 15:58:15;;;;;;;16.08;7.70;;;7.70;70.20;;;;;;4920228;29;20024;-82
2022/12/06 16:00:40;;;;;;;13.30;8.35;;;7.70;70.40;;;;;;4905456;29;20059;-81
2022/12/06 16:03:07;;;;;;;13.85;7.20;;;7.60;70.50;;;;;;4911795;29;20032;-81
2022/12/06 16:05:33;;;;;;;14.77;7.38;;;7.50;70.70;;;;;;4919476;29;20055;-83
2022/12/06 16:07:59;;;;;;;11.57;7.75;;;7.50;70.70;;;;;;4917528;29;20047;-83
2022/12/06 16:10:26;;;;;;;14.23;8.38;;;7.50;71.00;;;;;;4903909;29;20029;-83
2022/12/06 16:15:36;;;;;;;19.55;10.32;;;7.40;71.30;;;;;;4919160;29;20039;-82
2022/12/06 16:18:02;;;;;;;18.90;10.80;;;7.30;71.50;;;;;;4915447;29;20032;-80
2022/12/06 16:20:31;;;;;;;23.00;11.75;;;7.30;71.60;;;;;;4906837;29;20106;-80
2022/12/06 16:25:43;;;;;;;37.28;17.80;;;7.30;71.70;;;;;;4900207;29;20057;-83
2022/12/06 16:28:10;;;;;;;30.48;15.10;;;7.30;72.00;;;;;;4891960;29;20050;-79
2022/12/06 16:30:39;;;;;;;26.92;12.93;;;7.30;72.00;;;;;;4922827;29;20048;-81
2022/12/06 16:33:05;;;;;;;21.73;11.70;;;7.30;72.00;;;;;;4940767;29;20035;-77
2022/12/06 16:35:31;;;;;;;25.58;11.38;;;7.30;71.90;;;;;;4924010;29;20059;-78
2022/12/06 16:37:57;;;;;;;21.02;11.65;;;7.30;71.90;;;;;;4917065;29;20435;-79
2022/12/06 16:40:25;;;;;;;18.65;11.20;;;7.30;72.10;;;;;;4919678;29;20035;-80
2022/12/06 16:42:51;;;;;;;26.70;10.80;;;7.30;72.30;;;;;;4918241;29;20067;-77
2022/12/06 16:45:17;;;;;;;16.92;9.20;;;7.30;72.40;;;;;;4919281;29;20040;-81
2022/12/06 16:48:11;;;;;;;17.02;8.50;;;7.30;72.40;;;;;;4934159;29;20040;-81
2022/12/06 16:50:37;;;;;;;14.10;8.35;;;7.30;72.50;;;;;;4933262;29;20034;-81
2022/12/06 16:53:03;;;;;;;21.13;10.80;;;7.40;72.50;;;;;;4921918;29;20024;-84
2022/12/06 16:55:29;;;;;;;15.50;10.65;;;7.30;72.40;;;;;;4916977;29;20377;-81
2022/12/06 16:57:55;;;;;;;20.45;11.45;;;7.40;72.60;;;;;;4914999;29;20108;-77
2022/12/06 17:00:21;;;;;;;21.63;12.18;;;7.40;72.50;;;;;;4900043;29;20385;-82
2022/12/06 17:02:48;;;;;;;18.15;9.95;;;7.40;72.40;;;;;;4939531;29;20032;-77
2022/12/06 17:05:18;;;;;;;15.40;8.75;;;7.40;72.70;;;;;;4922626;29;20075;-78
2022/12/06 17:07:44;;;;;;;17.73;9.23;;;7.40;72.80;;;;;;4941046;29;20031;-78
2022/12/06 17:10:30;;;;;;;;;;;;;;;;;;;;;
2022/12/06 17:12:57;;;;;;;17.65;10.02;;;7.50;72.90;;;;;;4940433;29;20038;-79
2022/12/06 17:15:22;;;;;;;18.58;10.57;;;7.50;72.70;;;;;;4910667;29;20031;-79
2022/12/06 17:17:49;;;;;;;21.55;10.80;;;7.50;72.60;;;;;;4923360;29;20040;-79
2022/12/06 17:20:16;;;;;;;21.63;11.07;;;7.50;72.60;;;;;;4935656;29;20099;-79
2022/12/06 17:22:42;;;;;;;16.10;9.57;;;7.50;72.80;;;;;;4933176;29;20036;-79
2022/12/06 17:25:09;;;;;;;13.88;9.00;;;7.50;72.80;;;;;;4923091;29;20404;-80
2022/12/06 17:27:36;;;;;;;23.13;11.27;;;7.50;73.00;;;;;;4923585;29;20103;-83
2022/12/06 17:30:02;;;;;;;28.20;12.93;;;7.40;73.00;;;;;;4940203;29;20047;-79
2022/12/06 17:32:28;;;;;;;21.95;12.55;;;7.40;72.90;;;;;;4929207;29;20503;-78
2022/12/06 17:34:54;;;;;;;22.27;13.57;;;7.40;73.10;;;;;;4903442;29;20083;-78
2022/12/06 17:37:20;;;;;;;58.55;20.98;;;7.30;73.20;;;;;;4939712;29;20563;-78
2022/12/06 17:39:47;;;;;;;40.00;18.73;;;7.30;73.30;;;;;;4933415;29;20048;-78
2022/12/06 17:45:00;;;;;;;37.33;16.15;;;7.40;73.10;;;;;;4940805;29;20586;-79
2022/12/06 17:47:25;;;;;;;29.55;12.77;;;7.40;73.00;;;;;;4922726;29;20031;-80
2022/12/06 17:49:51;;;;;;;22.67;12.38;;;7.40;73.10;;;;;;4913854;29;20095;-79
2022/12/06 17:52:17;;;;;;;22.38;13.13;;;7.40;73.00;;;;;;4934023;29;20027;-79
2022/12/06 17:54:43;;;;;;;29.50;14.20;;;7.40;73.00;;;;;;4937437;29;20042;-80
2022/12/06 17:57:16;;;;;;;26.17;13.50;;;7.30;73.10;;;;;;4936428;29;20043;-79
2022/12/06 17:59:43;;;;;;;21.10;11.10;;;7.40;73.00;;;;;;4921103;29;20432;-79
2022/12/06 18:02:12;;;;;;;23.85;10.90;;;7.40;73.20;;;;;;4915130;29;20035;-78
2022/12/06 18:04:38;;;;;;;21.92;11.77;;;7.40;73.10;;;;;;4939249;29;20023;-80
2022/12/06 18:07:04;;;;;;;32.17;14.65;;;7.40;73.00;;;;;;4935264;29;20159;-78
2022/12/06 18:09:29;;;;;;;35.13;17.13;;;7.40;72.90;;;;;;4914893;29;20031;-78
2022/12/06 18:11:55;;;;;;;50.78;20.75;;;7.40;73.00;;;;;;4920639;29;20039;-78
2022/12/06 18:14:21;;;;;;;43.30;17.10;;;7.40;73.20;;;;;;4912674;29;20024;-77
2022/12/06 18:16:47;;;;;;;31.98;16.00;;;7.40;72.90;;;;;;4932920;29;20087;-77
2022/12/06 18:19:15;;;;;;;19.65;13.23;;;7.50;72.90;;;;;;4939898;29;20039;-83
2022/12/06 18:21:42;;;;;;;26.63;14.50;;;7.50;72.80;;;;;;4918140;29;20472;-83
2022/12/06 18:24:11;;;;;;;27.95;14.35;;;7.50;72.80;;;;;;4922064;29;20042;-82
2022/12/06 18:26:37;;;;;;;19.45;13.13;;;7.50;73.10;;;;;;4915173;29;20028;-81
2022/12/06 18:29:04;;;;;;;26.90;14.25;;;7.50;73.10;;;;;;4928932;29;20025;-77
2022/12/06 18:31:32;;;;;;;23.55;13.43;;;7.40;73.10;;;;;;4936842;29;20050;-76
2022/12/06 18:33:59;;;;;;;29.25;13.02;;;7.50;73.10;;;;;;4928322;29;20139;-75
2022/12/06 18:36:25;;;;;;;31.95;15.48;;;7.50;73.40;;;;;;4919108;29;20027;-80
2022/12/06 18:38:55;;;;;;;21.92;12.88;;;7.40;73.40;;;;;;4941811;29;20464;-76
2022/12/06 18:41:28;;;;;;;25.58;13.20;;;7.40;73.40;;;;;;4930954;29;20028;-76
2022/12/06 18:43:55;;;;;;;22.08;11.98;;;7.40;73.30;;;;;;4911287;29;20091;-78
2022/12/06 18:46:23;;;;;;;22.45;12.73;;;7.40;73.30;;;;;;4938669;29;20400;-77
2022/12/06 18:48:53;;;;;;;28.98;13.20;;;7.40;73.30;;;;;;4938989;29;20080;-74
2022/12/06 18:51:45;;;;;;;26.98;14.40;;;7.40;73.40;;;;;;4939303;29;20103;-74
2022/12/06 18:54:12;;;;;;;25.48;12.43;;;7.40;73.60;;;;;;4924680;29;20500;-75
2022/12/06 18:56:38;;;;;;;22.80;11.95;;;7.30;73.70;;;;;;4924166;29;20046;-74
2022/12/06 18:59:07;;;;;;;16.55;11.40;;;7.40;73.60;;;;;;4938970;29;20020;-75